createdAt,value
2023-09-13T00:02:16.935Z,99537.15
2023-09-13T00:04:44.412Z,99536.52
2023-09-13T00:07:11.734Z,99533.66
2023-09-13T00:09:42.286Z,99534.48
2023-09-13T00:12:09.657Z,99531.27
2023-09-13T00:14:36.908Z,99533.65
2023-09-13T00:17:04.413Z,99529.94
2023-09-13T00:19:31.307Z,99531.12
2023-09-13T00:21:58.516Z,99530.20
2023-09-13T00:24:25.605Z,99530.88
2023-09-13T00:26:52.474Z,99528.86
2023-09-13T00:29:19.712Z,99525.11
2023-09-13T00:31:47.154Z,99525.21
2023-09-13T00:34:14.246Z,99528.10
2023-09-13T00:36:41.570Z,99527.90
2023-09-13T00:39:08.725Z,99528.02
2023-09-13T00:41:35.454Z,99528.12
2023-09-13T00:44:02.397Z,99526.91
2023-09-13T00:46:29.409Z,99521.79
2023-09-13T00:48:56.693Z,99521.95
2023-09-13T00:51:23.737Z,99521.87
2023-09-13T00:53:50.601Z,99524.02
2023-09-13T00:56:17.424Z,99524.48
2023-09-13T00:58:45.026Z,99518.42
2023-09-13T01:01:13.530Z,99515.50
2023-09-13T01:03:41.893Z,99517.21
2023-09-13T01:06:10.329Z,99515.42
2023-09-13T01:08:42.383Z,99515.52
2023-09-13T01:11:09.155Z,99513.77
2023-09-13T01:13:36.693Z,99515.98
2023-09-13T01:16:22.801Z,99514.98
2023-09-13T01:19:08.387Z,99510.77
2023-09-13T01:21:56.837Z,99510.84
2023-09-13T01:24:42.856Z,99501.45
2023-09-13T01:27:50.321Z,99503.75
2023-09-13T01:30:17.446Z,99504.14
2023-09-13T01:32:47.480Z,99503.69
2023-09-13T01:35:14.303Z,99501.29
2023-09-13T01:37:41.555Z,99500.90
2023-09-13T01:40:10.289Z,99501.84
2023-09-13T01:42:38.831Z,99501.98
2023-09-13T01:45:10.951Z,99500.86
2023-09-13T01:47:42.995Z,99501.92
2023-09-13T01:50:10.134Z,99497.19
2023-09-13T01:52:37.167Z,99497.91
2023-09-13T01:55:08.190Z,99499.09
2023-09-13T01:57:35.042Z,99498.30
2023-09-13T02:00:02.078Z,99499.10
2023-09-13T02:02:39.413Z,99496.42
2023-09-13T02:05:07.664Z,99496.55
2023-09-13T02:07:34.586Z,99495.30
2023-09-13T02:10:01.381Z,99497.38
2023-09-13T02:12:29.818Z,99500.84
2023-09-13T02:14:56.757Z,99499.86
2023-09-13T02:17:23.620Z,99499.45
2023-09-13T02:19:51.270Z,99500.42
2023-09-13T02:22:18.208Z,99498.71
2023-09-13T02:24:45.228Z,99497.91
2023-09-13T02:27:13.363Z,99497.73
2023-09-13T02:29:40.387Z,99497.81
2023-09-13T02:32:07.438Z,99494.32
2023-09-13T02:34:34.268Z,99497.27
2023-09-13T02:37:01.221Z,99491.38
2023-09-13T02:39:38.038Z,99491.11
2023-09-13T02:42:05.983Z,99487.54
2023-09-13T02:44:33.718Z,99490.20
2023-09-13T02:47:01.140Z,99496.03
2023-09-13T02:49:28.259Z,99499.64
2023-09-13T02:51:55.240Z,99498.73
2023-09-13T02:54:22.316Z,99501.19
2023-09-13T02:56:55.983Z,99499.58
2023-09-13T02:59:22.968Z,99501.92
2023-09-13T03:01:50.747Z,99501.29
2023-09-13T03:04:17.973Z,99499.31
2023-09-13T03:06:47.399Z,99501.02
2023-09-13T03:09:14.348Z,99498.40
2023-09-13T03:11:41.075Z,99499.88
2023-09-13T03:14:08.226Z,99501.84
2023-09-13T03:16:35.590Z,99500.92
2023-09-13T03:19:04.154Z,99503.56
2023-09-13T03:21:35.515Z,99500.05
2023-09-13T03:24:02.550Z,99499.52
2023-09-13T03:26:29.819Z,99500.70
2023-09-13T03:28:57.460Z,99499.55
2023-09-13T03:31:26.057Z,99501.84
2023-09-13T03:33:55.149Z,99500.42
2023-09-13T03:36:22.280Z,99504.77
2023-09-13T03:38:52.309Z,99504.67
2023-09-13T03:41:22.317Z,99510.42
2023-09-13T03:43:49.902Z,99509.94
2023-09-13T03:46:16.988Z,99515.14
2023-09-13T03:48:44.627Z,99517.10
2023-09-13T03:51:12.334Z,99519.39
2023-09-13T03:53:39.282Z,99517.48
2023-09-13T03:56:06.651Z,99515.37
2023-09-13T03:58:36.881Z,99515.20
2023-09-13T04:01:05.083Z,99513.30
2023-09-13T04:03:33.313Z,99508.54
2023-09-13T04:06:01.189Z,99511.32
2023-09-13T04:08:31.110Z,99516.88
2023-09-13T04:10:57.940Z,99518.00
2023-09-13T04:13:24.958Z,99516.48
2023-09-13T04:15:52.378Z,99509.76
2023-09-13T04:18:19.540Z,99516.07
2023-09-13T04:20:49.612Z,99516.95
2023-09-13T04:23:16.664Z,99518.71
2023-09-13T04:25:43.982Z,99519.36
2023-09-13T04:28:11.251Z,99523.69
2023-09-13T04:30:38.453Z,99519.42
2023-09-13T04:33:07.136Z,99524.04
2023-09-13T04:35:34.448Z,99524.09
2023-09-13T04:38:01.415Z,99522.49
2023-09-13T04:40:29.019Z,99523.30
2023-09-13T04:43:17.132Z,99529.42
2023-09-13T04:45:44.806Z,99531.61
2023-09-13T04:48:12.212Z,99530.40
2023-09-13T04:50:39.076Z,99528.39
2023-09-13T04:53:07.840Z,99530.55
2023-09-13T04:55:34.889Z,99531.54
2023-09-13T04:58:01.983Z,99528.33
2023-09-13T05:00:29.400Z,99526.83
2023-09-13T05:02:56.463Z,99526.80
2023-09-13T05:05:24.004Z,99524.55
2023-09-13T05:07:52.393Z,99522.05
2023-09-13T05:10:19.140Z,99520.02
2023-09-13T05:12:49.088Z,99514.89
2023-09-13T05:15:16.184Z,99512.48
2023-09-13T05:17:43.550Z,99518.80
2023-09-13T05:20:10.377Z,99520.01
2023-09-13T05:22:37.323Z,99520.39
2023-09-13T05:25:04.960Z,99518.58
2023-09-13T05:27:31.933Z,99522.72
2023-09-13T05:29:58.973Z,99526.48
2023-09-13T05:32:26.275Z,99525.91
2023-09-13T05:34:53.407Z,99524.86
2023-09-13T05:37:20.559Z,99521.93
2023-09-13T05:39:47.981Z,99523.40
2023-09-13T05:42:15.461Z,99518.30
2023-09-13T05:44:42.412Z,99524.86
2023-09-13T05:47:09.346Z,99520.06
2023-09-13T05:49:36.283Z,99520.49
2023-09-13T05:52:03.675Z,99525.50
2023-09-13T05:54:30.690Z,99528.88
2023-09-13T05:56:57.597Z,99527.97
2023-09-13T05:59:24.784Z,99528.20
2023-09-13T06:01:52.118Z,99521.86
2023-09-13T06:04:19.421Z,99522.39
2023-09-13T06:06:46.643Z,99530.61
2023-09-13T06:09:13.908Z,99534.42
2023-09-13T06:11:41.037Z,99531.27
2023-09-13T06:14:10.987Z,99529.48
2023-09-13T06:16:40.982Z,99532.67
2023-09-13T06:19:08.501Z,99530.52
2023-09-13T06:21:35.566Z,99531.72
2023-09-13T06:24:02.516Z,99533.77
2023-09-13T06:26:29.777Z,99536.41
2023-09-13T06:28:57.517Z,99537.11
2023-09-13T06:31:32.903Z,99539.19
2023-09-13T06:36:32.804Z,99537.07
2023-09-13T06:39:00.723Z,99531.91
2023-09-13T06:41:28.499Z,99528.09
2023-09-13T06:44:07.066Z,99527.48
2023-09-13T06:46:41.079Z,99527.76
2023-09-13T06:49:08.849Z,99531.12
2023-09-13T06:54:09.043Z,99532.50
2023-09-13T06:56:37.656Z,99535.77
2023-09-13T06:59:10.260Z,99537.58
2023-09-13T07:02:05.955Z,99541.95
2023-09-13T07:04:31.671Z,99532.27
2023-09-13T07:07:02.561Z,99533.98
2023-09-13T07:09:29.664Z,99533.58
2023-09-13T07:11:56.705Z,99539.05
2023-09-13T07:14:27.024Z,99537.80
2023-09-13T07:16:54.506Z,99537.23
2023-09-13T07:19:21.630Z,99538.26
2023-09-13T07:21:49.927Z,99542.41
2023-09-13T07:24:17.662Z,99541.34
2023-09-13T07:26:44.595Z,99542.85
2023-09-13T07:29:11.641Z,99543.47
2023-09-13T07:31:38.728Z,99540.34
2023-09-13T07:34:05.565Z,99540.60
2023-09-13T07:36:32.909Z,99540.98
2023-09-13T07:39:01.796Z,99539.79
2023-09-13T07:41:29.071Z,99540.38
2023-09-13T07:43:56.140Z,99539.38
2023-09-13T07:46:23.771Z,99537.96
2023-09-13T07:48:50.907Z,99542.92
2023-09-13T07:51:17.840Z,99542.29
2023-09-13T07:53:45.119Z,99540.83
2023-09-13T07:56:12.183Z,99542.52
2023-09-13T07:58:39.120Z,99546.52
2023-09-13T08:01:06.283Z,99545.56
2023-09-13T08:03:33.741Z,99547.30
2023-09-13T08:06:04.223Z,99547.65
2023-09-13T08:08:33.769Z,99541.96
2023-09-13T08:11:01.177Z,99544.30
2023-09-13T08:13:28.634Z,99545.48
2023-09-13T08:15:56.050Z,99543.34
2023-09-13T08:18:22.895Z,99545.02
2023-09-13T08:20:51.400Z,99540.81
2023-09-13T08:23:18.623Z,99543.48
2023-09-13T08:25:46.307Z,99541.37
2023-09-13T08:28:13.338Z,99538.69
2023-09-13T08:30:40.604Z,99537.02
2023-09-13T08:33:08.488Z,99536.26
2023-09-13T08:35:35.669Z,99540.17
2023-09-13T08:38:02.735Z,99539.68
2023-09-13T08:40:30.536Z,99538.36
2023-09-13T08:42:57.562Z,99539.98
2023-09-13T08:45:24.649Z,99539.84
2023-09-13T08:47:58.761Z,99537.02
2023-09-13T08:50:29.242Z,99534.72
2023-09-13T08:53:00.116Z,99534.27
2023-09-13T08:55:27.304Z,99532.31
2023-09-13T08:57:56.136Z,99528.79
2023-09-13T09:00:24.486Z,99527.31
2023-09-13T09:02:51.585Z,99525.88
2023-09-13T09:05:18.877Z,99526.77
2023-09-13T09:07:45.823Z,99529.80
2023-09-13T09:10:13.765Z,99532.23
2023-09-13T09:12:47.163Z,99524.95
2023-09-13T09:15:14.617Z,99523.79
2023-09-13T09:17:42.388Z,99525.25
2023-09-13T09:20:09.670Z,99527.22
2023-09-13T09:22:36.807Z,99525.14
2023-09-13T09:25:06.928Z,99521.73
2023-09-13T09:27:34.178Z,99521.53
2023-09-13T09:30:03.937Z,99517.89
2023-09-13T09:32:31.378Z,99515.88
2023-09-13T09:34:59.009Z,99516.95
2023-09-13T09:37:33.687Z,99511.35
2023-09-13T09:40:02.467Z,99516.03
2023-09-13T09:42:30.104Z,99511.48
2023-09-13T09:44:57.101Z,99511.07
2023-09-13T09:47:24.084Z,99506.19
2023-09-13T09:49:50.839Z,99502.74
2023-09-13T09:52:18.957Z,99496.70
2023-09-13T09:54:51.929Z,99502.11
2023-09-13T09:57:34.489Z,99501.43
2023-09-13T10:00:08.226Z,99503.86
2023-09-13T10:02:36.672Z,99506.66
2023-09-13T10:05:04.406Z,99501.77
2023-09-13T10:07:31.602Z,99498.52
2023-09-13T10:09:58.321Z,99505.17
2023-09-13T10:12:25.101Z,99502.08
2023-09-13T10:14:51.800Z,99499.24
2023-09-13T10:17:18.581Z,99495.34
2023-09-13T10:19:45.243Z,99493.22
2023-09-13T10:22:13.719Z,99494.03
2023-09-13T10:24:46.976Z,99491.02
2023-09-13T10:27:13.748Z,99491.20
2023-09-13T10:29:45.489Z,99488.33
2023-09-13T10:32:14.160Z,99487.20
2023-09-13T10:35:12.551Z,99480.50
2023-09-13T10:38:07.194Z,99477.73
2023-09-13T10:40:49.068Z,99477.42
2023-09-13T10:43:15.822Z,99476.70
2023-09-13T10:45:42.642Z,99479.64
2023-09-13T10:48:09.732Z,99487.63
2023-09-13T10:55:20.470Z,99476.84
2023-09-13T10:57:47.287Z,99480.64
2023-09-13T11:00:16.991Z,99475.54
2023-09-13T11:02:44.641Z,99467.44
2023-09-13T11:05:12.323Z,99465.95
2023-09-13T11:07:47.342Z,99465.76
2023-09-13T11:10:15.825Z,99461.81
2023-09-13T11:12:49.543Z,99459.61
2023-09-13T11:15:21.406Z,99458.30
2023-09-13T11:17:48.346Z,99457.30
2023-09-13T11:20:28.153Z,99456.71
2023-09-13T11:23:29.620Z,99451.67
2023-09-13T11:26:08.651Z,99453.66
2023-09-13T11:28:38.427Z,99446.95
2023-09-13T11:31:06.581Z,99445.02
2023-09-13T11:34:06.374Z,99447.10
2023-09-13T11:36:33.126Z,99442.24
2023-09-13T11:39:01.212Z,99441.20
2023-09-13T11:46:13.397Z,99443.05
2023-09-13T11:48:55.363Z,99441.30
2023-09-13T11:51:25.976Z,99440.95
2023-09-13T11:53:56.128Z,99438.71
2023-09-13T11:56:44.022Z,99436.20
2023-09-13T11:59:14.073Z,99431.23
2023-09-13T12:01:47.724Z,99433.79
2023-09-13T12:06:53.576Z,99422.08
2023-09-13T12:09:29.779Z,99421.21
2023-09-13T12:12:06.107Z,99415.58
2023-09-13T12:14:57.164Z,99416.83
2023-09-13T12:17:20.944Z,99414.60
2023-09-13T12:19:48.070Z,99410.80
2023-09-13T12:22:19.938Z,99408.30
2023-09-13T12:24:52.431Z,99409.58
2023-09-13T12:27:19.422Z,99409.64
2023-09-13T12:29:47.244Z,99409.39
2023-09-13T12:32:14.997Z,99401.58
2023-09-13T12:34:42.125Z,99403.81
2023-09-13T12:37:09.088Z,99403.48
2023-09-13T12:39:35.989Z,99400.34
2023-09-13T12:42:08.942Z,99400.73
2023-09-13T12:44:37.448Z,99399.73
2023-09-13T12:47:04.632Z,99397.67
2023-09-13T12:49:31.563Z,99398.65
2023-09-13T12:51:58.536Z,99394.75
2023-09-13T12:54:25.382Z,99395.95
2023-09-13T12:56:52.050Z,99394.86
2023-09-13T12:59:18.898Z,99395.09
2023-09-13T13:01:45.627Z,99396.13
2023-09-13T13:04:14.139Z,99393.41
2023-09-13T13:07:00.282Z,99393.30
2023-09-13T13:09:27.135Z,99391.36
2023-09-13T13:11:54.404Z,99393.16
2023-09-13T13:14:22.226Z,99392.83
2023-09-13T13:16:56.006Z,99390.55
2023-09-13T13:19:53.757Z,99392.27
2023-09-13T13:22:22.827Z,99390.92
2023-09-13T13:24:49.689Z,99386.14
2023-09-13T13:27:17.745Z,99386.25
2023-09-13T13:29:44.714Z,99384.40
2023-09-13T13:32:11.719Z,99376.67
2023-09-13T13:34:38.481Z,99375.31
2023-09-13T13:37:05.240Z,99372.88
2023-09-13T13:39:32.334Z,99372.33
2023-09-13T13:41:59.034Z,99373.27
2023-09-13T13:44:25.894Z,99368.59
2023-09-13T13:46:52.667Z,99368.14
2023-09-13T13:49:19.862Z,99365.27
2023-09-13T13:51:50.008Z,99364.39
2023-09-13T13:54:18.397Z,99364.30
2023-09-13T13:57:10.646Z,99359.18
2023-09-13T13:59:37.557Z,99354.73
2023-09-13T14:02:04.942Z,99359.05
2023-09-13T14:04:31.931Z,99355.21
2023-09-13T14:06:58.787Z,99357.00
2023-09-13T14:09:26.205Z,99359.20
2023-09-13T14:11:52.989Z,99360.23
2023-09-13T14:14:20.242Z,99355.23
2023-09-13T14:16:48.629Z,99350.00
2023-09-13T14:19:15.419Z,99347.15
2023-09-13T14:21:42.374Z,99349.12
2023-09-13T14:24:09.117Z,99346.73
2023-09-13T14:26:35.839Z,99348.52
2023-09-13T14:29:02.567Z,99344.45
2023-09-13T14:31:35.608Z,99343.28
2023-09-13T14:34:03.386Z,99343.91
2023-09-13T14:36:30.281Z,99340.47
2023-09-13T14:38:56.909Z,99336.92
2023-09-13T14:41:25.479Z,99338.69
2023-09-13T14:48:24.172Z,99340.04
2023-09-13T14:50:51.215Z,99340.19
2023-09-13T14:53:17.939Z,99339.52
2023-09-13T14:55:45.952Z,99339.73
2023-09-13T14:58:12.782Z,99342.46
2023-09-13T15:00:39.494Z,99342.32
2023-09-13T15:03:07.827Z,99341.05
2023-09-13T15:05:34.605Z,99335.01
2023-09-13T15:08:01.369Z,99337.02
2023-09-13T15:10:30.908Z,99336.08
2023-09-13T15:12:58.567Z,99335.20
2023-09-13T15:15:25.603Z,99339.06
2023-09-13T15:17:53.137Z,99337.07
2023-09-13T15:24:55.482Z,99330.59
2023-09-13T15:27:22.334Z,99331.50
2023-09-13T15:29:49.112Z,99334.23
2023-09-13T15:32:16.025Z,99330.04
2023-09-13T15:34:42.916Z,99333.95
2023-09-13T15:37:09.712Z,99335.17
2023-09-13T15:39:39.248Z,99338.98
2023-09-13T15:42:06.113Z,99339.29
2023-09-13T15:44:33.049Z,99339.19
2023-09-13T15:46:59.794Z,99341.43
2023-09-13T15:49:26.566Z,99343.16
2023-09-13T15:51:53.401Z,99345.45
2023-09-13T15:54:21.557Z,99348.64
2023-09-13T15:56:50.347Z,99348.95
2023-09-13T15:59:17.071Z,99346.34
2023-09-13T16:01:44.291Z,99344.02
2023-09-13T16:04:11.293Z,99345.66
2023-09-13T16:06:39.350Z,99352.35
2023-09-13T16:09:06.628Z,99357.46
2023-09-13T16:11:35.124Z,99358.23
2023-09-13T16:14:03.246Z,99358.48
2023-09-13T16:16:33.304Z,99359.17
2023-09-13T16:19:00.028Z,99358.38
2023-09-13T16:21:26.788Z,99358.66
2023-09-13T16:23:53.718Z,99362.98
2023-09-13T16:26:21.361Z,99365.58
2023-09-13T16:28:48.267Z,99365.69
2023-09-13T16:31:17.244Z,99368.48
2023-09-13T16:33:45.118Z,99367.17
2023-09-13T16:36:11.852Z,99365.54
2023-09-13T16:38:38.729Z,99364.38
2023-09-13T16:41:05.604Z,99363.67
2023-09-13T16:43:32.703Z,99364.73
2023-09-13T16:46:00.616Z,99363.71
2023-09-13T16:48:47.394Z,99364.98
2023-09-13T16:51:15.391Z,99365.77
2023-09-13T16:53:45.267Z,99367.05
2023-09-13T16:56:14.588Z,99365.23
2023-09-13T16:58:43.695Z,99364.39
2023-09-13T17:01:12.971Z,99367.55
2023-09-13T17:03:42.390Z,99369.97
2023-09-13T17:06:11.822Z,99367.65
2023-09-13T17:08:41.538Z,99371.02
2023-09-13T17:11:14.525Z,99375.32
2023-09-13T17:13:45.183Z,99375.73
2023-09-13T17:16:13.340Z,99374.64
2023-09-13T17:18:43.601Z,99373.00
2023-09-13T17:21:12.365Z,99372.74
2023-09-13T17:23:42.288Z,99373.77
2023-09-13T17:26:12.356Z,99375.20
2023-09-13T17:28:46.689Z,99375.13
2023-09-13T17:31:17.049Z,99373.95
2023-09-13T17:33:46.390Z,99376.75
2023-09-13T17:36:24.743Z,99372.36
2023-09-13T17:39:01.333Z,99372.18
2023-09-13T17:41:30.305Z,99369.05
2023-09-13T17:43:59.427Z,99373.40
2023-09-13T17:46:29.364Z,99373.21
2023-09-13T17:49:01.643Z,99373.88
2023-09-13T17:59:23.447Z,99368.55
2023-09-13T18:01:50.344Z,99368.67
2023-09-13T18:04:17.551Z,99361.41
2023-09-13T18:06:46.830Z,99367.02
2023-09-13T18:09:14.003Z,99368.04
2023-09-13T18:11:40.948Z,99372.16
2023-09-13T18:14:09.932Z,99373.61
2023-09-13T18:16:36.950Z,99378.20
2023-09-13T18:19:04.142Z,99379.79
2023-09-13T18:21:31.423Z,99381.20
2023-09-13T18:23:58.334Z,99381.30
2023-09-13T18:26:25.268Z,99374.64
2023-09-13T18:28:53.877Z,99375.61
2023-09-13T18:31:20.870Z,99375.12
2023-09-13T18:33:47.985Z,99374.95
2023-09-13T18:36:14.997Z,99376.91
2023-09-13T18:38:42.598Z,99373.58
2023-09-13T18:41:09.712Z,99371.00
2023-09-13T18:43:36.760Z,99368.86
2023-09-13T18:46:05.094Z,99369.13
2023-09-13T18:48:32.378Z,99367.63
2023-09-13T18:51:00.449Z,99370.80
2023-09-13T18:53:28.110Z,99371.25
2023-09-13T18:55:56.830Z,99371.73
2023-09-13T18:58:24.355Z,99374.13
2023-09-13T19:00:58.224Z,99375.38
2023-09-13T19:03:25.325Z,99377.02
2023-09-13T19:06:03.147Z,99380.23
2023-09-13T19:08:30.976Z,99383.19
2023-09-13T19:11:00.424Z,99384.10
2023-09-13T19:13:30.402Z,99384.05
2023-09-13T19:16:01.998Z,99382.56
2023-09-13T19:18:29.751Z,99385.37
2023-09-13T19:20:56.658Z,99381.80
2023-09-13T19:23:24.560Z,99373.51
2023-09-13T19:25:54.938Z,99377.61
2023-09-13T19:28:25.990Z,99375.85
2023-09-13T19:30:57.632Z,99376.02
2023-09-13T19:33:26.165Z,99371.04
2023-09-13T19:35:55.320Z,99365.79
2023-09-13T19:38:29.851Z,99361.02
2023-09-13T19:40:57.919Z,99357.54
2023-09-13T19:43:28.865Z,99357.30
2023-09-13T19:46:01.179Z,99357.55
2023-09-13T19:48:28.565Z,99358.98
2023-09-13T19:51:05.368Z,99359.86
2023-09-13T19:53:32.311Z,99357.06
2023-09-13T19:55:59.863Z,99356.69
2023-09-13T19:58:26.822Z,99356.89
2023-09-13T20:01:09.766Z,99358.05
2023-09-13T20:03:37.166Z,99354.95
2023-09-13T20:06:21.196Z,99350.80
2023-09-13T20:08:48.791Z,99348.05
2023-09-13T20:11:16.826Z,99349.59
2023-09-13T20:13:44.384Z,99348.19
2023-09-13T20:16:11.587Z,99350.41
2023-09-13T20:18:38.735Z,99356.47
2023-09-13T20:21:06.052Z,99355.98
2023-09-13T20:23:33.120Z,99354.75
2023-09-13T20:25:59.985Z,99361.83
2023-09-13T20:28:29.562Z,99360.11
2023-09-13T20:30:56.775Z,99361.09
2023-09-13T20:33:23.799Z,99361.84
2023-09-13T20:35:50.826Z,99358.55
2023-09-13T20:38:18.169Z,99357.52
2023-09-13T20:40:45.315Z,99355.24
2023-09-13T20:43:12.691Z,99354.92
2023-09-13T20:45:39.789Z,99351.70
2023-09-13T20:48:07.439Z,99351.63
2023-09-13T20:50:34.242Z,99347.72
2023-09-13T20:53:01.201Z,99346.92
2023-09-13T20:55:29.335Z,99348.41
2023-09-13T20:57:56.574Z,99349.68
2023-09-13T21:00:23.863Z,99347.38
2023-09-13T21:02:51.225Z,99345.72
2023-09-13T21:05:18.151Z,99342.94
2023-09-13T21:07:44.993Z,99341.81
2023-09-13T21:10:13.391Z,99344.37
2023-09-13T21:12:40.392Z,99342.85
2023-09-13T21:15:08.291Z,99341.99
2023-09-13T21:17:35.039Z,99340.42
2023-09-13T21:20:02.064Z,99338.80
2023-09-13T21:22:29.104Z,99334.66
2023-09-13T21:24:55.922Z,99338.77
2023-09-13T21:27:22.794Z,99338.31
2023-09-13T21:29:49.630Z,99334.98
2023-09-13T21:32:16.526Z,99337.04
2023-09-13T21:34:58.808Z,99337.83
2023-09-13T21:37:33.023Z,99331.48
2023-09-13T21:40:02.478Z,99333.13
2023-09-13T21:42:29.740Z,99331.16
2023-09-13T21:44:56.929Z,99324.77
2023-09-13T21:47:25.306Z,99326.91
2023-09-13T21:49:52.129Z,99325.55
2023-09-13T21:52:20.021Z,99324.06
2023-09-13T21:54:47.740Z,99322.16
2023-09-13T21:57:17.828Z,99314.08
2023-09-13T21:59:44.618Z,99315.97
2023-09-13T22:02:11.559Z,99319.51
2023-09-13T22:04:38.611Z,99316.91
2023-09-13T22:07:05.599Z,99318.88
2023-09-13T22:09:32.681Z,99316.45
2023-09-13T22:12:00.160Z,99316.78
2023-09-13T22:14:27.130Z,99313.32
2023-09-13T22:16:54.113Z,99312.69
2023-09-13T22:19:21.300Z,99317.42
2023-09-13T22:21:48.397Z,99315.73
2023-09-13T22:24:15.283Z,99308.83
2023-09-13T22:26:42.026Z,99306.88
2023-09-13T22:29:09.078Z,99310.21
2023-09-13T22:31:35.973Z,99310.46
2023-09-13T22:34:02.992Z,99309.41
2023-09-13T22:36:30.171Z,99311.27
2023-09-13T22:39:07.743Z,99311.67
2023-09-13T22:41:37.521Z,99309.48
2023-09-13T22:44:04.591Z,99306.06
2023-09-13T22:46:31.593Z,99302.48
2023-09-13T22:48:58.766Z,99298.82
2023-09-13T22:51:25.748Z,99300.25
2023-09-13T22:53:52.763Z,99298.75
2023-09-13T22:56:19.697Z,99296.25
2023-09-13T22:58:46.836Z,99294.87
2023-09-13T23:01:14.156Z,99293.31
2023-09-13T23:03:45.189Z,99291.90
2023-09-13T23:06:13.592Z,99291.69
2023-09-13T23:08:40.963Z,99287.20
2023-09-13T23:11:08.023Z,99285.21
2023-09-13T23:13:35.456Z,99285.16
2023-09-13T23:16:07.717Z,99283.09
2023-09-13T23:18:36.111Z,99287.23
2023-09-13T23:21:03.597Z,99287.80
2023-09-13T23:23:30.803Z,99285.66
2023-09-13T23:26:07.751Z,99279.11
2023-09-13T23:28:34.556Z,99282.02
2023-09-13T23:31:12.557Z,99277.19
2023-09-13T23:33:41.665Z,99275.41
2023-09-13T23:36:11.977Z,99272.30
2023-09-13T23:38:39.448Z,99265.32
2023-09-13T23:41:07.638Z,99266.16
2023-09-13T23:43:38.137Z,99273.24
2023-09-13T23:46:05.700Z,99265.79
2023-09-13T23:48:33.411Z,99264.63
2023-09-13T23:51:01.434Z,99261.52
2023-09-13T23:53:28.374Z,99260.02
2023-09-13T23:55:55.215Z,99257.81
2023-09-13T23:58:22.157Z,99255.83
